Time;durP1;ratioP1;P1;durP2;ratioP2;P2;SDS_P1;SDS_P2;PMS_P1;PMS_P2;Temp;Humidity;BMP_temperature;BMP_pressure;BME280_temperature;BME280_humidity;BME280_pressure;Samples;Min_cycle;Max_cycle;Signal;HPM_P1;HPM_P2
2022/01/29 00:01:47;;;;;;;26.23;14.93;;;;;;;4.03;88.45;101927.34;4904004;29;20543;-93
2022/01/29 00:04:16;;;;;;;30.60;15.38;;;;;;;4.25;88.25;101951.88;4905537;29;20469;-93
2022/01/29 00:06:59;;;;;;;31.25;16.20;;;;;;;4.45;88.48;101984.31;4904627;29;20055;-93
2022/01/29 00:12:34;;;;;;;30.40;15.70;;;;;;;4.25;88.63;101941.41;4900217;29;20159;-92
2022/01/29 00:15:22;;;;;;;30.58;15.20;;;;;;;4.45;88.96;101971.19;4896993;29;20152;-93
2022/01/29 00:18:08;;;;;;;32.55;15.23;;;;;;;4.44;88.28;101964.19;4903277;29;20052;-92
2022/01/29 00:20:38;;;;;;;31.75;15.15;;;;;;;4.54;89.01;101983.47;4903872;29;20106;-92
2022/01/29 00:23:09;;;;;;;26.95;15.27;;;;;;;4.23;88.40;101928.31;4902365;29;20052;-92
2022/01/29 00:25:37;;;;;;;28.52;15.00;;;;;;;4.44;87.82;101948.47;4903031;29;20049;-91
2022/01/29 00:28:09;;;;;;;26.35;14.95;;;;;;;4.31;88.20;101922.19;4900375;29;20052;-92
2022/01/29 00:30:42;;;;;;;29.30;14.07;;;;;;;4.30;88.56;101930.94;4895483;29;20048;-92
2022/01/29 00:33:17;;;;;;;28.75;14.40;;;;;;;4.61;88.64;101979.09;4903805;29;20056;-93
2022/01/29 00:36:00;;;;;;;29.77;15.07;;;;;;;4.56;88.47;101972.09;4901591;29;20064;-93
2022/01/29 00:38:36;;;;;;;28.33;14.70;;;;;;;4.65;88.82;101987.00;4900875;29;20060;-92
2022/01/29 00:41:25;;;;;;;27.25;15.07;;;;;;;4.39;88.75;101942.34;4907559;29;20112;-91
2022/01/29 00:43:56;;;;;;;27.30;13.98;;;;;;;4.47;88.52;101945.84;4897472;29;20135;-92
2022/01/29 00:46:43;;;;;;;24.92;13.90;;;;;;;4.54;88.21;101955.50;4895099;29;20473;-92
2022/01/29 00:49:19;;;;;;;25.40;13.88;;;;;;;4.51;88.24;101941.50;4901141;29;20476;-91
2022/01/29 00:51:52;;;;;;;26.95;14.30;;;;;;;4.76;87.96;101981.78;4902137;29;20063;-91
2022/01/29 00:54:23;;;;;;;26.60;13.35;;;;;;;4.51;88.48;101936.25;4903336;29;20112;-90
2022/01/29 00:56:50;;;;;;;24.02;13.65;;;;;;;4.70;88.86;101969.53;4896810;29;20055;-91
2022/01/29 00:59:26;;;;;;;28.45;13.98;;;;;;;4.52;88.73;101931.00;4885647;29;20044;-92
2022/01/29 01:01:57;;;;;;;27.77;13.20;;;;;;;4.45;88.76;101929.22;4906486;29;20096;-90
2022/01/29 01:04:26;;;;;;;25.92;13.07;;;;;;;4.52;88.67;101915.28;4894682;29;20049;-92
2022/01/29 01:06:56;;;;;;;26.52;12.73;;;;;;;4.57;89.00;101924.00;4894138;29;20052;-91
2022/01/29 01:09:23;;;;;;;25.20;12.93;;;;;;;4.70;89.05;101953.78;4902062;29;20069;-92
2022/01/29 01:11:59;;;;;;;24.83;13.52;;;;;;;4.83;88.90;101949.44;4899674;29;20048;-91
2022/01/29 01:14:34;;;;;;;24.90;12.63;;;;;;;4.59;88.90;101901.28;4895573;29;20059;-91
2022/01/29 01:17:03;;;;;;;22.90;12.38;;;;;;;4.63;89.40;101909.16;4904724;29;20163;-93
2022/01/29 01:19:33;;;;;;;26.38;12.90;;;;;;;4.41;89.46;101864.50;4915307;29;20107;-92
2022/01/29 01:22:03;;;;;;;24.30;12.10;;;;;;;4.46;89.46;101875.91;4908325;29;20052;-93
2022/01/29 01:24:36;;;;;;;23.63;12.75;;;;;;;4.76;89.45;101926.66;4910199;29;20048;-90
2022/01/29 01:27:18;;;;;;;22.08;12.32;;;;;;;4.60;88.90;101873.28;4899366;29;20055;-91
2022/01/29 01:29:49;;;;;;;24.13;13.13;;;;;;;4.60;88.61;101868.03;4896335;29;20049;-92
2022/01/29 01:32:24;;;;;;;23.17;12.85;;;;;;;4.70;89.03;101889.94;4898593;29;20045;-90
2022/01/29 01:34:57;;;;;;;25.98;12.73;;;;;;;4.65;88.99;101875.94;4896827;29;20103;-90
2022/01/29 01:37:45;;;;;;;25.23;13.05;;;;;;;4.82;89.31;101897.81;4895987;29;20100;-90
2022/01/29 01:40:17;;;;;;;28.48;13.02;;;;;;;4.66;90.10;101870.69;4896955;29;20445;-91
2022/01/29 01:42:49;;;;;;;26.15;13.18;;;;;;;4.73;89.45;101864.53;4891060;29;20136;-92
2022/01/29 01:45:17;;;;;;;25.63;13.10;;;;;;;4.85;89.08;101879.44;4898891;29;20056;-93
2022/01/29 01:47:44;;;;;;;25.73;12.52;;;;;;;4.68;89.62;101855.81;4898392;29;20406;-91
2022/01/29 01:50:13;;;;;;;23.30;11.90;;;;;;;4.71;89.80;101847.06;4902204;29;20666;-90
2022/01/29 01:52:46;;;;;;;21.70;11.98;;;;;;;4.42;89.88;101795.44;4899264;29;20052;-92
2022/01/29 01:55:14;;;;;;;20.88;11.50;;;;;;;4.62;89.97;101821.69;4895152;29;20425;-92
2022/01/29 01:57:57;;;;;;;21.48;11.63;;;;;;;4.51;90.42;101812.97;4894310;29;20059;-90
2022/01/29 02:00:29;;;;;;;21.55;11.23;;;;;;;4.65;89.59;101826.06;4898384;29;20057;-91
2022/01/29 02:02:57;;;;;;;18.52;10.60;;;;;;;4.59;89.84;101817.31;4894392;29;20494;-92
2022/01/29 02:05:28;;;;;;;19.55;10.70;;;;;;;4.35;89.79;101780.59;4894139;29;20072;-90
2022/01/29 02:08:00;;;;;;;18.65;9.57;;;;;;;4.38;89.81;101775.38;4891321;29;20056;-91
2022/01/29 02:10:29;;;;;;;20.73;10.43;;;;;;;4.50;89.58;101784.97;4893089;29;20056;-91
2022/01/29 02:13:03;;;;;;;;;;;;;;;4.72;89.32;101823.44;4892585;29;20052;-91
2022/01/29 02:15:33;;;;;;;20.63;10.23;;;;;;;4.39;89.37;101756.13;4890187;29;20460;-90
2022/01/29 02:18:00;;;;;;;19.75;10.07;;;;;;;4.51;89.67;101790.22;4890160;29;20139;-90
2022/01/29 02:20:32;;;;;;;17.35;9.55;;;;;;;4.33;88.94;101753.50;4883952;29;20117;-90
2022/01/29 02:23:01;;;;;;;18.75;9.90;;;;;;;4.47;88.52;101750.88;4899807;29;20056;-90
2022/01/29 02:25:42;;;;;;;14.85;9.07;;;;;;;4.69;88.90;101780.59;4894584;29;20175;-89
2022/01/29 02:28:19;;;;;;;17.95;9.45;;;;;;;4.74;88.56;101789.31;4891558;29;20049;-93
2022/01/29 02:30:56;;;;;;;18.08;9.45;;;;;;;4.39;88.71;101745.66;4895278;29;20116;-91
2022/01/29 02:33:26;;;;;;;16.77;8.82;;;;;;;4.43;88.83;101750.00;4893944;29;20052;-89
2022/01/29 02:35:54;;;;;;;15.85;8.55;;;;;;;4.62;88.28;101770.97;4893945;29;20128;-91
2022/01/29 02:38:29;;;;;;;16.17;9.27;;;;;;;4.40;88.09;101744.78;4891024;29;20049;-91
2022/01/29 02:41:05;;;;;;;16.35;8.88;;;;;;;4.62;88.45;101757.84;4895889;29;20060;-90
2022/01/29 02:43:36;;;;;;;;;;;;;;;4.75;88.30;101775.31;4895455;29;20048;-90
2022/01/29 02:46:08;;;;;;;17.80;9.75;;;;;;;4.47;88.04;101716.78;4898803;29;20299;-93
2022/01/29 02:48:39;;;;;;;16.67;9.80;;;;;;;4.49;87.69;101722.91;4897380;29;20056;-92
2022/01/29 02:51:06;;;;;;;17.17;10.40;;;;;;;4.52;88.44;101733.38;4894495;29;20091;-91
2022/01/29 02:53:33;;;;;;;18.67;11.02;;;;;;;4.52;88.62;101742.13;4901851;29;20045;-89
2022/01/29 02:56:09;;;;;;;23.27;11.25;;;;;;;4.43;89.11;101750.00;4896069;29;20045;-90
2022/01/29 02:58:41;;;;;;;22.02;10.30;;;;;;;4.34;88.76;101721.16;4897065;29;20124;-90
2022/01/29 03:01:19;;;;;;;19.30;11.35;;;;;;;4.41;88.27;101724.63;4904462;29;20064;-90
2022/01/29 03:03:56;;;;;;;18.95;10.52;;;;;;;4.48;88.73;101740.38;4895344;29;20142;-91
2022/01/29 03:06:32;;;;;;;21.05;10.70;;;;;;;4.37;89.08;101721.16;4893866;29;20056;-92
2022/01/29 03:09:00;;;;;;;23.95;12.30;;;;;;;4.57;89.27;101744.72;4897457;29;20092;-91
2022/01/29 03:11:44;;;;;;;22.45;11.73;;;;;;;4.31;89.09;101694.94;4898630;29;20053;-91
2022/01/29 03:14:14;;;;;;;22.65;11.70;;;;;;;4.28;89.13;101699.28;4895700;29;20068;-91
2022/01/29 03:16:43;;;;;;;22.38;12.65;;;;;;;4.25;90.01;101705.41;4894892;29;20052;-90
2022/01/29 03:19:10;;;;;;;25.27;12.32;;;;;;;4.18;89.91;101709.78;4892652;29;20076;-92
2022/01/29 03:21:38;;;;;;;23.83;11.55;;;;;;;4.26;89.78;101716.78;4897635;29;20059;-87
2022/01/29 03:24:06;;;;;;;23.65;12.68;;;;;;;4.52;89.94;101773.63;4895050;29;20059;-91
2022/01/29 03:26:34;;;;;;;23.60;13.10;;;;;;;4.32;90.23;101737.75;4898992;29;20163;-90
2022/01/29 03:29:01;;;;;;;24.42;12.75;;;;;;;4.32;91.18;101729.91;4895007;29;20040;-90
2022/01/29 03:31:29;;;;;;;26.58;12.90;;;;;;;4.25;90.95;101688.84;4901164;29;20052;-90
2022/01/29 03:33:56;;;;;;;23.70;12.38;;;;;;;4.44;91.05;101729.88;4891137;29;20267;-90
2022/01/29 03:36:23;;;;;;;24.83;12.75;;;;;;;4.44;91.22;101724.63;4895217;29;20057;-92
2022/01/29 03:38:51;;;;;;;26.90;12.98;;;;;;;4.25;91.61;101704.56;4891905;29;20059;-91
2022/01/29 03:41:18;;;;;;;26.25;12.68;;;;;;;4.31;90.96;101705.41;4899872;29;20053;-92
2022/01/29 03:43:49;;;;;;;27.30;12.80;;;;;;;4.11;90.98;101662.59;4897612;29;20053;-90
2022/01/29 03:46:19;;;;;;;25.55;12.50;;;;;;;4.39;91.04;101701.06;4898224;29;20058;-90
2022/01/29 03:48:46;;;;;;;24.77;13.07;;;;;;;4.31;91.13;101683.56;4879523;29;20056;-91
2022/01/29 03:51:13;;;;;;;25.40;12.65;;;;;;;4.56;90.97;101709.75;4897602;29;20108;-90
2022/01/29 03:53:40;;;;;;;23.73;13.05;;;;;;;4.36;90.49;101684.44;4895427;29;20053;-91
2022/01/29 03:56:10;;;;;;;29.27;13.25;;;;;;;4.52;91.26;101715.91;4897808;29;22216;-90
2022/01/29 03:58:39;;;;;;;25.52;12.32;;;;;;;4.45;90.11;101698.41;4902555;29;20068;-90
2022/01/29 04:01:08;;;;;;;25.23;12.82;;;;;;;4.42;90.08;101689.66;4898500;29;20064;-90
2022/01/29 04:03:37;;;;;;;25.27;12.50;;;;;;;4.50;90.83;101706.28;4898735;29;20121;-89
2022/01/29 04:06:08;;;;;;;21.92;12.50;;;;;;;4.39;90.67;101682.69;4895411;29;21752;-89
2022/01/29 04:08:40;;;;;;;20.85;11.85;;;;;;;4.64;91.03;101735.13;4897730;29;20117;-91
2022/01/29 04:11:10;;;;;;;21.58;11.90;;;;;;;4.42;90.51;101676.56;4905450;29;20062;-90
2022/01/29 04:13:43;;;;;;;24.63;12.82;;;;;;;4.65;90.27;101721.13;4899868;29;20048;-91
2022/01/29 04:16:15;;;;;;;22.33;12.50;;;;;;;4.48;90.24;101684.41;4894330;29;20481;-92
2022/01/29 04:18:45;;;;;;;22.65;12.57;;;;;;;4.62;89.78;101689.66;4895712;29;20068;-92
2022/01/29 04:21:13;;;;;;;23.23;12.23;;;;;;;4.38;90.03;101665.22;4897280;29;20159;-90
2022/01/29 04:23:41;;;;;;;22.75;13.02;;;;;;;4.61;89.50;101693.13;4897548;29;20048;-91
2022/01/29 04:26:08;;;;;;;25.70;13.85;;;;;;;4.62;89.92;101689.66;4896807;29;20072;-92
2022/01/29 04:28:40;;;;;;;23.67;12.65;;;;;;;4.46;89.68;101670.44;4896095;29;20052;-91
2022/01/29 04:31:15;;;;;;;26.50;14.07;;;;;;;4.35;89.88;101631.13;4900373;29;20487;-91
2022/01/29 04:33:45;;;;;;;23.38;13.45;;;;;;;4.67;89.96;101701.88;4905091;29;20117;-92
2022/01/29 04:36:29;;;;;;;24.40;13.05;;;;;;;4.63;90.20;101676.53;4905875;29;20066;-92
2022/01/29 04:38:56;;;;;;;24.50;13.37;;;;;;;4.65;90.32;101673.91;4904762;29;20049;-90
2022/01/29 04:41:30;;;;;;;23.58;13.07;;;;;;;4.56;89.54;101659.91;4905135;29;20060;-91
2022/01/29 04:44:00;;;;;;;23.40;13.63;;;;;;;4.53;90.34;101664.31;4898030;29;20096;-92
2022/01/29 04:46:27;;;;;;;24.77;13.07;;;;;;;4.50;90.25;101656.44;4895886;29;20052;-93
2022/01/29 04:49:01;;;;;;;24.13;13.25;;;;;;;4.41;90.42;101652.06;4895115;29;20048;-91
2022/01/29 04:51:28;;;;;;;29.02;13.75;;;;;;;4.45;90.51;101645.94;4879787;29;20045;-90
2022/01/29 04:53:57;;;;;;;25.08;13.10;;;;;;;4.52;90.00;101652.94;4893946;29;20048;-92
2022/01/29 04:56:27;;;;;;;25.63;12.35;;;;;;;4.30;90.08;101632.00;4895445;29;20128;-92
2022/01/29 04:58:56;;;;;;;21.35;12.80;;;;;;;4.23;90.43;101629.41;4896380;29;20058;-90
2022/01/29 05:01:23;;;;;;;23.90;12.85;;;;;;;4.29;90.26;101632.88;4892611;29;20061;-91
2022/01/29 05:03:50;;;;;;;23.73;13.18;;;;;;;4.19;90.45;101611.91;4893972;29;20068;-91
2022/01/29 05:06:20;;;;;;;24.52;12.82;;;;;;;4.50;90.82;101657.31;4894172;29;20048;-90
2022/01/29 05:08:47;;;;;;;23.35;13.10;;;;;;;4.39;90.44;101629.38;4892131;29;20055;-90
2022/01/29 05:11:16;;;;;;;24.05;12.70;;;;;;;4.46;90.32;101644.22;4895163;29;20144;-90
2022/01/29 05:13:59;;;;;;;25.40;13.10;;;;;;;4.47;90.05;101623.22;4893649;29;20520;-91
2022/01/29 05:16:40;;;;;;;26.27;12.95;;;;;;;4.29;89.90;101607.53;4893951;29;20060;-92
2022/01/29 05:27:29;;;;;;;23.27;11.57;;;;;;;4.30;89.85;101598.78;4895114;29;20048;-90
2022/01/29 05:29:58;;;;;;;27.10;13.63;;;;;;;4.45;90.31;101635.47;4891574;29;20048;-90
2022/01/29 05:32:31;;;;;;;21.38;12.57;;;;;;;4.66;89.72;101665.16;4894281;29;20496;-91
2022/01/29 05:34:59;;;;;;;17.73;10.65;;;;;;;4.65;90.07;101658.16;4905945;29;20075;-90
2022/01/29 05:37:39;;;;;;;21.47;10.63;;;;;;;4.44;90.12;101624.97;4894101;29;20148;-92
2022/01/29 05:40:11;;;;;;;19.50;10.82;;;;;;;4.45;89.65;101619.72;4902894;29;20056;-91
2022/01/29 05:42:39;;;;;;;18.02;10.20;;;;;;;4.52;89.92;101631.09;4895823;29;20124;-90
2022/01/29 05:45:07;;;;;;;22.70;10.95;;;;;;;4.50;89.95;101623.22;4905705;29;20049;-93
2022/01/29 05:47:35;;;;;;;20.00;10.40;;;;;;;4.19;90.15;101585.72;4906077;29;20056;-90
2022/01/29 05:50:04;;;;;;;21.63;10.60;;;;;;;4.61;90.04;101645.91;4882089;29;20048;-91
2022/01/29 05:52:32;;;;;;;19.98;10.10;;;;;;;4.51;89.58;101617.09;4893557;29;20397;-91
2022/01/29 05:55:05;;;;;;;17.00;9.95;;;;;;;4.49;89.81;101615.34;4892657;29;20059;-92
2022/01/29 05:57:32;;;;;;;20.25;10.88;;;;;;;4.43;89.90;101610.97;4892737;29;20068;-91
2022/01/29 06:00:03;;;;;;;17.90;10.32;;;;;;;4.47;90.04;101617.97;4891823;29;20065;-91
2022/01/29 06:02:29;;;;;;;18.77;9.55;;;;;;;4.30;89.71;101580.44;4890376;29;20060;-92
2022/01/29 06:04:57;;;;;;;17.08;9.50;;;;;;;4.62;90.11;101624.06;4888314;29;20094;-92
2022/01/29 06:07:23;;;;;;;18.05;10.13;;;;;;;4.51;89.98;101611.84;4887450;29;20076;-91
2022/01/29 06:09:50;;;;;;;19.25;9.75;;;;;;;4.33;89.58;101575.19;4888847;29;20052;-91
2022/01/29 06:12:20;;;;;;;20.02;10.02;;;;;;;4.58;90.06;101634.56;4874283;29;20416;-92
2022/01/29 06:14:49;;;;;;;20.35;9.68;;;;;;;4.29;90.51;101568.19;4892693;29;20047;-93
2022/01/29 06:17:16;;;;;;;17.42;9.63;;;;;;;4.35;90.31;101588.28;4892541;29;20530;-92
2022/01/29 06:19:47;;;;;;;20.27;9.60;;;;;;;4.42;90.79;101606.63;4893422;29;20048;-91
2022/01/29 06:22:19;;;;;;;20.27;11.00;;;;;;;4.40;90.99;101595.28;4891812;29;20076;-90
2022/01/29 06:24:49;;;;;;;18.92;9.90;;;;;;;4.32;90.75;101570.81;4893064;29;20083;-90
2022/01/29 06:27:17;;;;;;;20.33;11.10;;;;;;;4.44;91.00;101594.38;4889381;29;20057;-91
2022/01/29 06:29:49;;;;;;;19.83;10.45;;;;;;;4.48;90.78;101590.00;4896023;29;20511;-91
2022/01/29 06:32:20;;;;;;;18.35;10.23;;;;;;;4.47;90.58;101583.00;4897347;29;20100;-91
2022/01/29 06:34:47;;;;;;;20.55;10.43;;;;;;;4.42;90.25;101572.53;4895276;29;20057;-92
2022/01/29 06:37:15;;;;;;;20.00;10.63;;;;;;;4.21;91.49;101556.88;4897423;29;20061;-91
2022/01/29 06:39:48;;;;;;;19.73;10.40;;;;;;;4.47;91.42;101589.13;4896308;29;20550;-91
2022/01/29 06:42:19;;;;;;;20.88;11.43;;;;;;;4.54;91.20;101601.34;4897162;29;20408;-91
2022/01/29 06:44:46;;;;;;;22.40;11.38;;;;;;;4.51;91.79;101597.88;4900573;29;20397;-91
2022/01/29 06:47:13;;;;;;;21.92;11.07;;;;;;;4.19;91.88;101545.50;4894278;29;20108;-91
2022/01/29 06:49:41;;;;;;;21.48;11.15;;;;;;;4.32;92.02;101583.06;4880054;29;20049;-90
2022/01/29 06:52:15;;;;;;;21.35;11.43;;;;;;;4.20;92.39;101558.63;4891620;29;20048;-91
2022/01/29 06:54:54;;;;;;;19.85;11.05;;;;;;;4.41;92.07;101588.25;4897530;29;20382;-91
2022/01/29 06:57:35;;;;;;;21.52;11.20;;;;;;;4.41;92.56;101591.75;4897065;29;20049;-92
2022/01/29 07:00:25;;;;;;;21.55;11.48;;;;;;;4.19;92.80;101553.38;4895818;29;20434;-92
2022/01/29 07:02:53;;;;;;;21.92;10.68;;;;;;;4.61;92.97;101610.06;4896164;29;20059;-91
2022/01/29 07:05:35;;;;;;;;;;;;;;;;;;;;;
2022/01/29 07:08:15;;;;;;;;;;;;;;;;;;;;;
2022/01/29 07:10:51;;;;;;;21.10;10.82;;;;;;;4.27;95.74;101577.81;4896641;29;20052;-91
2022/01/29 07:13:20;;;;;;;19.77;11.35;;;;;;;4.13;95.98;101563.84;4899984;29;20117;-91
2022/01/29 07:15:51;;;;;;;19.33;11.07;;;;;;;4.01;97.13;101538.56;4903529;29;20052;-90
2022/01/29 07:18:19;;;;;;;21.20;11.50;;;;;;;4.24;97.48;101583.09;4898000;29;20060;-91
2022/01/29 07:21:09;;;;;;;22.02;11.05;;;;;;;4.06;97.18;101539.44;4898952;29;20056;-91
2022/01/29 07:23:36;;;;;;;21.35;11.13;;;;;;;4.30;97.29;101569.06;4900100;29;20104;-91
2022/01/29 07:26:06;;;;;;;22.50;11.80;;;;;;;4.01;97.61;101532.44;4895841;29;20076;-91
2022/01/29 07:28:39;;;;;;;20.80;11.27;;;;;;;3.98;98.07;101512.34;4894258;29;20094;-94
2022/01/29 07:31:08;;;;;;;25.98;11.90;;;;;;;4.24;99.07;101569.97;4893072;29;20175;-90
2022/01/29 07:33:36;;;;;;;20.35;11.38;;;;;;;4.28;99.46;101571.69;4898266;29;20379;-92
2022/01/29 07:36:05;;;;;;;23.77;12.75;;;;;;;3.90;99.34;101508.88;4886959;29;20064;-91
2022/01/29 07:38:34;;;;;;;26.17;13.85;;;;;;;3.81;99.97;101506.25;4877097;29;20121;-91
2022/01/29 07:41:01;;;;;;;23.45;13.45;;;;;;;4.10;100.00;101553.38;4884905;29;20083;-89
2022/01/29 07:43:30;;;;;;;28.52;14.23;;;;;;;4.14;100.00;101582.22;4885475;29;20053;-91
2022/01/29 07:45:58;;;;;;;22.75;11.85;;;;;;;4.06;100.00;101547.28;4883391;29;20049;-91
2022/01/29 07:48:26;;;;;;;24.10;13.38;;;;;;;3.99;100.00;101534.19;4885027;29;20068;-90
2022/01/29 07:51:02;;;;;;;23.23;13.38;;;;;;;3.82;100.00;101519.38;4892206;29;20070;-93
2022/01/29 07:53:31;;;;;;;24.27;13.15;;;;;;;3.84;100.00;101514.13;4879800;29;20049;-90
2022/01/29 07:56:09;;;;;;;25.23;13.50;;;;;;;3.87;100.00;101511.50;4876983;29;20061;-91
2022/01/29 07:58:39;;;;;;;22.35;12.80;;;;;;;3.92;100.00;101512.38;4880088;29;20148;-92
2022/01/29 08:01:09;;;;;;;22.52;12.93;;;;;;;3.99;100.00;101516.72;4880910;29;20482;-91
2022/01/29 08:03:57;;;;;;;20.77;12.93;;;;;;;4.13;99.62;101524.53;4879963;29;20059;-93
2022/01/29 08:06:29;;;;;;;23.50;12.27;;;;;;;4.17;99.12;101529.78;4875702;29;20053;-94
2022/01/29 08:08:57;;;;;;;22.58;12.10;;;;;;;4.05;98.12;101495.75;4878066;29;20053;-93
2022/01/29 08:11:25;;;;;;;20.90;12.13;;;;;;;4.19;96.69;101503.56;4882648;29;20045;-93
2022/01/29 08:13:55;;;;;;;18.27;10.55;;;;;;;4.35;95.93;101522.72;4884008;29;20048;-94
2022/01/29 08:16:33;;;;;;;17.33;10.88;;;;;;;4.23;95.58;101502.69;4883257;29;20060;-93
2022/01/29 08:19:01;;;;;;;17.25;9.85;;;;;;;4.62;94.10;101545.34;4881733;29;20113;-94
2022/01/29 08:21:29;;;;;;;17.23;10.35;;;;;;;4.56;94.13;101552.34;4883697;29;20057;-92
2022/01/29 08:23:56;;;;;;;16.48;9.73;;;;;;;4.41;93.11;101504.34;4880866;29;20056;-94
2022/01/29 08:26:28;;;;;;;18.85;10.27;;;;;;;4.39;92.79;101506.13;4882998;29;20082;-92
2022/01/29 08:28:56;;;;;;;16.20;9.70;;;;;;;4.62;92.75;101543.59;4880222;29;20045;-94
2022/01/29 08:31:23;;;;;;;16.05;9.70;;;;;;;4.52;93.16;101527.03;4880495;29;20056;-93
2022/01/29 08:33:54;;;;;;;14.82;8.90;;;;;;;4.64;91.58;101522.59;4876469;29;20053;-95
2022/01/29 08:36:24;;;;;;;13.10;8.65;;;;;;;4.47;91.46;101493.84;4874951;29;20065;-92
2022/01/29 08:39:12;;;;;;;13.30;8.90;;;;;;;4.84;90.97;101554.88;4878890;29;20116;-93
2022/01/29 08:41:48;;;;;;;14.02;8.38;;;;;;;4.89;91.44;101558.34;4885310;29;20048;-93
2022/01/29 08:44:17;;;;;;;14.73;8.15;;;;;;;4.54;90.64;101498.19;4881865;29;20045;-93
2022/01/29 08:47:13;;;;;;;12.70;8.00;;;;;;;4.87;90.71;101550.50;4887858;29;20047;-94
2022/01/29 08:49:40;;;;;;;11.77;7.38;;;;;;;4.74;90.93;101519.91;4885541;29;20041;-94
2022/01/29 08:52:08;;;;;;;15.07;8.35;;;;;;;4.84;90.76;101536.50;4885393;29;20125;-93
2022/01/29 08:54:36;;;;;;;13.70;7.60;;;;;;;4.84;90.65;101526.88;4884592;29;20101;-92
2022/01/29 08:57:06;;;;;;;12.52;7.95;;;;;;;4.79;90.63;101533.91;4874942;29;20057;-92
2022/01/29 08:59:33;;;;;;;11.73;7.43;;;;;;;4.82;90.51;101525.16;4880745;29;20135;-93
2022/01/29 09:02:00;;;;;;;11.88;7.28;;;;;;;4.53;90.69;101476.31;4882834;29;20124;-93
2022/01/29 09:04:28;;;;;;;11.13;7.22;;;;;;;5.00;90.59;101542.53;4877090;29;20053;-94
2022/01/29 09:06:55;;;;;;;11.15;7.15;;;;;;;4.90;90.04;101518.09;4878217;29;20139;-94
2022/01/29 09:09:26;;;;;;;11.10;6.45;;;;;;;4.80;90.62;101496.28;4876202;29;20045;-92
2022/01/29 09:12:01;;;;;;;9.15;6.45;;;;;;;4.67;89.93;101467.50;4879267;29;20076;-94
2022/01/29 09:14:35;;;;;;;7.72;5.47;;;;;;;4.90;89.83;101504.97;4873633;29;20049;-93
2022/01/29 09:17:03;;;;;;;8.30;5.75;;;;;;;4.73;89.14;101464.81;4886519;29;20075;-92
2022/01/29 09:19:39;;;;;;;11.88;5.72;;;;;;;5.02;89.73;101519.78;4881633;29;20065;-92
2022/01/29 09:22:15;;;;;;;7.82;5.30;;;;;;;4.89;89.46;101490.97;4877197;29;20057;-93
2022/01/29 09:24:42;;;;;;;7.90;5.15;;;;;;;4.87;89.22;101491.88;4880586;29;20063;-93
2022/01/29 09:27:12;;;;;;;7.63;5.03;;;;;;;5.08;88.65;101499.59;4887975;29;20076;-93
2022/01/29 09:29:41;;;;;;;8.02;5.00;;;;;;;5.12;89.23;101508.34;4888280;29;20113;-94
2022/01/29 09:32:20;;;;;;;7.47;5.05;;;;;;;4.95;88.81;101476.94;4888184;29;20053;-92
2022/01/29 09:34:53;;;;;;;5.80;4.13;;;;;;;4.75;89.47;101452.56;4880937;29;20396;-91
2022/01/29 09:37:20;;;;;;;7.07;4.15;;;;;;;4.87;89.24;101470.88;4872818;29;20067;-94
2022/01/29 09:39:47;;;;;;;6.97;4.80;;;;;;;4.93;89.09;101484.81;4873902;29;20028;-92
2022/01/29 09:42:14;;;;;;;6.93;4.47;;;;;;;5.03;88.34;101482.16;4876598;29;20336;-93
2022/01/29 09:44:42;;;;;;;5.60;4.00;;;;;;;5.17;89.24;101504.81;4883276;29;20057;-93
2022/01/29 09:47:16;;;;;;;6.63;4.20;;;;;;;5.09;89.31;101498.72;4879666;29;20124;-94
2022/01/29 09:49:43;;;;;;;6.57;4.25;;;;;;;4.98;88.54;101474.31;4872951;29;20100;-93
2022/01/29 09:52:11;;;;;;;6.43;4.20;;;;;;;4.82;89.10;101442.03;4872231;29;20057;-93
2022/01/29 09:54:56;;;;;;;6.15;4.25;;;;;;;4.81;88.80;101440.28;4869319;29;20060;-93
2022/01/29 09:57:35;;;;;;;7.47;3.72;;;;;;;5.23;88.59;101504.75;4872483;29;20519;-93
2022/01/29 10:00:07;;;;;;;6.20;3.83;;;;;;;4.90;88.27;101455.97;4875827;29;20056;-92
2022/01/29 10:02:34;;;;;;;5.93;3.67;;;;;;;4.92;88.54;101450.72;4872743;29;20497;-93
2022/01/29 10:05:01;;;;;;;6.43;3.80;;;;;;;5.21;88.76;101496.00;4878650;29;20521;-94
2022/01/29 10:07:29;;;;;;;7.43;3.95;;;;;;;5.04;88.05;101476.00;4878730;29;20092;-93
2022/01/29 10:09:59;;;;;;;4.88;3.40;;;;;;;4.97;88.85;101462.06;4874369;29;20062;-93
2022/01/29 10:12:31;;;;;;;4.90;3.78;;;;;;;4.97;88.57;101463.81;4883542;29;20057;-91
2022/01/29 10:15:07;;;;;;;5.20;3.40;;;;;;;4.94;89.21;101462.06;4893826;29;20061;-93
2022/01/29 10:17:47;;;;;;;5.22;3.42;;;;;;;4.87;89.00;101450.75;4889596;29;20056;-95
2022/01/29 10:20:27;;;;;;;4.68;3.35;;;;;;;4.80;89.78;101450.81;4880201;29;20057;-91
2022/01/29 10:23:00;;;;;;;4.85;3.40;;;;;;;4.93;89.21;101455.06;4881232;29;20052;-92
2022/01/29 10:25:34;;;;;;;3.78;2.88;;;;;;;5.09;89.56;101498.72;4880382;29;20655;-92
2022/01/29 10:28:08;;;;;;;4.17;2.80;;;;;;;4.92;88.93;101454.22;4881734;29;20053;-91
2022/01/29 10:30:56;;;;;;;4.32;3.10;;;;;;;4.75;89.54;101429.81;4881662;29;20889;-92
2022/01/29 10:33:42;;;;;;;4.53;3.05;;;;;;;4.89;89.10;101445.47;4882773;29;20053;-92
2022/01/29 10:36:14;;;;;;;4.07;2.53;;;;;;;5.07;88.98;101481.22;4888724;29;20501;-92
2022/01/29 10:38:42;;;;;;;4.80;2.95;;;;;;;5.14;88.98;101470.69;4894236;29;20107;-94
2022/01/29 10:41:31;;;;;;;4.90;3.00;;;;;;;4.87;89.26;101431.53;4893462;29;20484;-92
2022/01/29 10:44:21;;;;;;;4.82;3.20;;;;;;;5.07;88.76;101450.59;4898032;29;20087;-93
2022/01/29 10:46:52;;;;;;;4.10;3.33;;;;;;;4.84;89.43;101429.78;4907216;29;20063;-91
2022/01/29 10:49:32;;;;;;;5.82;3.05;;;;;;;5.18;88.71;101454.03;4879819;29;20548;-91
2022/01/29 10:52:14;;;;;;;3.40;2.80;;;;;;;5.12;89.34;101467.19;4898550;29;20072;-93
2022/01/29 10:55:09;;;;;;;;;;;;;;;;;;;;;
2022/01/29 10:57:45;;;;;;;;;;;;;;;5.17;90.73;101478.53;4899721;29;20057;-92
2022/01/29 11:00:23;;;;;;;4.68;3.10;;;;;;;5.20;90.13;101448.75;4896702;29;19927;-93
2022/01/29 11:03:04;;;;;;;4.18;2.90;;;;;;;5.30;89.20;101439.91;4893755;29;20057;-93
2022/01/29 11:05:33;;;;;;;4.22;3.20;;;;;;;5.37;89.35;101467.84;4900128;29;20112;-92
2022/01/29 11:08:01;;;;;;;3.58;2.85;;;;;;;5.39;88.41;101442.44;4894192;29;20059;-93
2022/01/29 11:10:28;;;;;;;5.22;2.95;;;;;;;5.52;88.24;101456.34;4879005;29;20131;-91
2022/01/29 11:13:30;;;;;;;4.32;2.92;;;;;;;5.64;87.60;101451.00;4898186;29;20052;-91
2022/01/29 11:16:03;;;;;;;3.35;2.70;;;;;;;5.36;87.02;101418.84;4974451;23;20128;-96
2022/01/29 11:18:46;;;;;;;3.47;2.60;;;;;;;5.37;87.34;101412.69;4877303;29;20051;-92
2022/01/29 11:21:18;;;;;;;2.95;2.50;;;;;;;5.56;87.31;101437.03;4870980;29;20251;-91
2022/01/29 11:23:46;;;;;;;4.22;2.30;;;;;;;5.53;87.32;101416.03;4877511;29;20061;-93
2022/01/29 11:26:18;;;;;;;4.13;2.50;;;;;;;5.50;86.75;101395.97;4877274;29;20053;-94
2022/01/29 11:28:46;;;;;;;3.25;2.50;;;;;;;5.38;87.12;101375.03;4875750;29;20049;-93
2022/01/29 11:31:20;;;;;;;4.25;2.78;;;;;;;5.74;86.71;101430.72;4882079;29;20575;-95
2022/01/29 11:34:08;;;;;;;3.40;2.42;;;;;;;5.81;86.28;101433.28;4878502;29;20056;-95
2022/01/29 11:36:48;;;;;;;3.05;2.13;;;;;;;5.80;86.29;101425.41;4881942;29;20056;-94
2022/01/29 11:39:37;;;;;;;3.88;2.35;;;;;;;5.57;86.74;101381.84;4882737;29;20045;-94
2022/01/29 11:42:10;;;;;;;6.15;2.00;;;;;;;5.91;86.11;101424.44;4886102;29;20124;-93
2022/01/29 11:44:43;;;;;;;3.55;2.28;;;;;;;5.84;85.73;101392.94;4880048;29;20088;-95
2022/01/29 11:47:26;;;;;;;2.95;2.05;;;;;;;6.03;86.08;101410.28;4876115;29;20118;-94
2022/01/29 11:50:19;;;;;;;3.38;2.38;;;;;;;6.08;85.42;101420.75;4866094;29;20044;-93
2022/01/29 11:53:05;;;;;;;2.85;2.30;;;;;;;5.71;85.11;101337.03;4860223;29;20057;-95
2022/01/29 11:55:53;;;;;;;3.88;2.30;;;;;;;5.78;84.81;101330.81;4880500;29;20056;-94
2022/01/29 11:58:29;;;;;;;4.13;2.50;;;;;;;6.22;84.94;101395.13;4875689;29;20128;-94
2022/01/29 12:01:05;;;;;;;2.67;2.30;;;;;;;5.93;84.59;101332.41;4869785;29;20417;-94
2022/01/29 12:03:42;;;;;;;3.92;2.60;;;;;;;6.29;85.07;101392.41;4903995;29;20112;-92